Time;durP1;ratioP1;P1;durP2;ratioP2;P2;SDS_P1;SDS_P2;PMS_P1;PMS_P2;Temp;Humidity;BMP_temperature;BMP_pressure;BME280_temperature;BME280_humidity;BME280_pressure;Samples;Min_cycle;Max_cycle;Signal;HPM_P1;HPM_P2
2022/11/05 00:10:57;;;;;;;3.53;2.40;;;;;;;;;;5011688;28;20034;-81
2022/11/05 00:19:07;;;;;;;4.60;3.15;;;;;;;;;;4957776;28;20114;-82
2022/11/05 00:27:04;;;;;;;4.68;2.95;;;;;;;;;;5013067;28;20038;-81
2022/11/05 00:29:29;;;;;;;5.28;3.55;;;;;;;;;;5011673;28;20032;-82
2022/11/05 00:31:56;;;;;;;4.57;2.90;;;;;;;;;;5010903;28;20134;-82
2022/11/05 00:34:21;;;;;;;4.63;3.17;;;;;;;;;;5010003;28;20065;-82
2022/11/05 00:36:47;;;;;;;5.60;3.65;;;;;;;;;;5011126;28;20030;-82
2022/11/05 00:39:12;;;;;;;5.72;3.10;;;;;;;;;;5009934;28;20054;-83
2022/11/05 00:41:37;;;;;;;4.93;3.30;;;;;;;;;;5011503;28;20062;-81
2022/11/05 00:46:47;;;;;;;4.85;3.10;;;;;;;;;;5011871;28;20038;-83
2022/11/05 00:49:31;;;;;;;5.55;3.17;;;;;;;;;;5011751;28;20049;-82
2022/11/05 00:54:40;;;;;;;4.97;2.78;;;;;;;;;;5008637;28;19917;-82
2022/11/05 00:57:06;;;;;;;4.70;3.20;;;;;;;;;;5010681;28;20073;-82
2022/11/05 00:59:31;;;;;;;4.30;2.95;;;;;;;;;;5011236;28;20038;-83
2022/11/05 01:01:56;;;;;;;4.70;3.00;;;;;;;;;;5009868;28;20039;-82
2022/11/05 01:04:22;;;;;;;4.95;3.38;;;;;;;;;;5022565;28;20483;-82
2022/11/05 01:06:47;;;;;;;5.10;3.15;;;;;;;;;;4990108;28;20391;-82
2022/11/05 01:09:13;;;;;;;4.90;3.00;;;;;;;;;;5008298;28;20104;-81
2022/11/05 01:11:40;;;;;;;4.60;3.28;;;;;;;;;;4989936;28;20038;-83
2022/11/05 01:14:12;;;;;;;4.68;3.03;;;;;;;;;;5004371;28;20065;-81
2022/11/05 01:16:39;;;;;;;5.50;3.13;;;;;;;;;;5006642;28;20026;-81
2022/11/05 01:19:06;;;;;;;6.07;3.90;;;;;;;;;;5006805;28;20038;-81
2022/11/05 01:21:32;;;;;;;6.88;4.13;;;;;;;;;;5006285;28;20066;-82
2022/11/05 01:23:57;;;;;;;6.20;3.72;;;;;;;;;;5005362;28;20041;-80
2022/11/05 01:26:23;;;;;;;5.35;3.60;;;;;;;;;;5008021;28;20030;-81
2022/11/05 01:28:53;;;;;;;5.10;3.42;;;;;;;;;;5005675;28;20110;-83
2022/11/05 01:31:19;;;;;;;5.30;3.65;;;;;;;;;;5005986;28;20045;-81
2022/11/05 01:33:44;;;;;;;5.60;3.50;;;;;;;;;;5006151;28;20102;-82
2022/11/05 01:36:10;;;;;;;4.95;3.30;;;;;;;;;;5005934;28;20030;-81
2022/11/05 01:38:36;;;;;;;5.28;3.20;;;;;;;;;;5004626;28;20030;-80
2022/11/05 01:41:02;;;;;;;4.60;3.25;;;;;;;;;;5004471;28;20070;-80
2022/11/05 01:43:51;;;;;;;5.35;3.47;;;;;;;;;;5005915;28;20061;-82
2022/11/05 01:46:22;;;;;;;4.68;3.10;;;;;;;;;;5003459;28;20100;-82
2022/11/05 01:48:50;;;;;;;3.97;2.78;;;;;;;;;;5003293;28;20042;-81
2022/11/05 01:51:20;;;;;;;5.05;2.78;;;;;;;;;;5004852;28;20046;-81
2022/11/05 01:53:51;;;;;;;3.70;2.78;;;;;;;;;;5002500;28;20120;-81
2022/11/05 01:56:21;;;;;;;4.07;2.70;;;;;;;;;;5001469;28;20038;-82
2022/11/05 01:58:54;;;;;;;4.30;2.88;;;;;;;;;;5007507;28;20041;-79
2022/11/05 02:01:20;;;;;;;4.18;2.33;;;;;;;;;;5023160;28;20049;-82
2022/11/05 02:03:48;;;;;;;5.47;2.60;;;;;;;;;;5006595;28;20487;-82
2022/11/05 02:06:15;;;;;;;4.30;2.60;;;;;;;;;;5006293;28;20053;-80
2022/11/05 02:08:48;;;;;;;4.05;2.60;;;;;;;;;;5006913;28;20045;-83
2022/11/05 02:11:17;;;;;;;4.93;2.90;;;;;;;;;;5007752;28;20041;-83
2022/11/05 02:13:42;;;;;;;4.07;2.63;;;;;;;;;;5006159;28;20034;-81
2022/11/05 02:16:17;;;;;;;4.00;2.60;;;;;;;;;;5004973;28;20414;-83
2022/11/05 02:18:55;;;;;;;3.53;2.53;;;;;;;;;;5008702;28;20046;-82
2022/11/05 02:21:46;;;;;;;5.07;2.70;;;;;;;;;;5004697;28;20042;-82
2022/11/05 02:24:23;;;;;;;3.80;2.38;;;;;;;;;;5005053;28;20033;-81
2022/11/05 02:27:07;;;;;;;5.80;2.95;;;;;;;;;;5005049;28;20043;-82
2022/11/05 02:29:51;;;;;;;4.13;2.50;;;;;;;;;;5005454;28;20129;-81
2022/11/05 02:32:51;;;;;;;4.03;2.42;;;;;;;;;;5005120;28;20495;-82
2022/11/05 02:35:26;;;;;;;4.93;2.80;;;;;;;;;;5004916;28;20053;-82
2022/11/05 02:37:56;;;;;;;4.47;2.90;;;;;;;;;;5005308;28;20042;-81
2022/11/05 02:40:39;;;;;;;3.92;2.80;;;;;;;;;;5006577;28;20034;-82
2022/11/05 02:43:40;;;;;;;4.13;2.92;;;;;;;;;;5003797;28;20150;-83
2022/11/05 02:46:34;;;;;;;4.88;2.80;;;;;;;;;;4984813;28;20050;-82
2022/11/05 02:49:44;;;;;;;4.47;2.80;;;;;;;;;;5004567;28;20487;-81
2022/11/05 02:52:20;;;;;;;3.47;2.58;;;;;;;;;;4953512;28;20123;-81
2022/11/05 02:54:50;;;;;;;3.85;2.72;;;;;;;;;;4987261;28;20042;-81
2022/11/05 02:57:20;;;;;;;5.03;2.90;;;;;;;;;;5004509;28;20514;-81
2022/11/05 02:59:45;;;;;;;3.85;2.63;;;;;;;;;;5004141;28;20141;-82
2022/11/05 03:02:11;;;;;;;4.07;2.75;;;;;;;;;;5002991;28;20065;-80
2022/11/05 03:04:37;;;;;;;3.75;2.45;;;;;;;;;;5004730;28;20030;-81
2022/11/05 03:07:05;;;;;;;4.57;2.70;;;;;;;;;;5003568;28;20110;-81
2022/11/05 03:09:37;;;;;;;3.47;2.50;;;;;;;;;;4987391;28;20218;-82
2022/11/05 03:12:18;;;;;;;3.67;2.38;;;;;;;;;;5003330;28;20454;-81
2022/11/05 03:14:56;;;;;;;3.67;2.53;;;;;;;;;;5001280;28;20038;-81
2022/11/05 03:17:51;;;;;;;4.03;2.63;;;;;;;;;;5004575;28;20061;-82
2022/11/05 03:20:29;;;;;;;4.65;2.70;;;;;;;;;;5004703;28;20041;-81
2022/11/05 03:23:02;;;;;;;4.05;2.63;;;;;;;;;;5002954;28;20041;-82
2022/11/05 03:25:29;;;;;;;4.97;2.97;;;;;;;;;;5002324;28;20069;-80
2022/11/05 03:28:03;;;;;;;3.58;2.65;;;;;;;;;;4985428;28;20762;-82
2022/11/05 03:30:30;;;;;;;4.82;2.67;;;;;;;;;;5003892;28;20042;-84
2022/11/05 03:33:01;;;;;;;4.15;2.80;;;;;;;;;;5001796;28;20053;-81
2022/11/05 03:35:33;;;;;;;3.88;2.67;;;;;;;;;;4985328;28;20053;-80
2022/11/05 03:38:02;;;;;;;4.80;3.05;;;;;;;;;;5002397;28;20068;-84
2022/11/05 03:40:33;;;;;;;4.63;3.10;;;;;;;;;;5003196;28;20031;-80
2022/11/05 03:43:00;;;;;;;4.10;2.78;;;;;;;;;;5002600;28;20034;-82
2022/11/05 03:45:31;;;;;;;4.68;3.10;;;;;;;;;;5001583;28;20052;-80
2022/11/05 03:48:00;;;;;;;4.75;3.10;;;;;;;;;;4986017;28;20077;-82
2022/11/05 03:50:36;;;;;;;4.95;3.28;;;;;;;;;;5004314;28;20434;-82
2022/11/05 03:53:17;;;;;;;4.28;2.90;;;;;;;;;;5003286;28;20041;-82
2022/11/05 03:56:12;;;;;;;4.95;3.25;;;;;;;;;;5002821;28;20037;-81
2022/11/05 03:58:42;;;;;;;4.57;2.97;;;;;;;;;;4993372;28;20042;-82
2022/11/05 04:01:08;;;;;;;4.63;2.97;;;;;;;;;;5001398;28;20049;-83
2022/11/05 04:03:35;;;;;;;6.88;3.40;;;;;;;;;;5000373;28;20069;-83
2022/11/05 04:14:15;;;;;;;4.25;2.78;;;;;;;;;;4997594;28;19921;-82
2022/11/05 04:24:53;;;;;;;4.70;3.20;;;;;;;;;;5003165;28;20045;-81
2022/11/05 04:27:18;;;;;;;4.30;2.70;;;;;;;;;;5004133;28;20022;-82
2022/11/05 04:32:28;;;;;;;7.45;3.20;;;;;;;;;;5004087;28;20053;-82
2022/11/05 04:34:53;;;;;;;5.18;2.90;;;;;;;;;;5004517;28;20038;-84
2022/11/05 04:37:19;;;;;;;4.70;2.90;;;;;;;;;;4988856;28;20034;-84
2022/11/05 04:39:44;;;;;;;4.93;2.95;;;;;;;;;;5007431;28;20030;-83
2022/11/05 04:42:10;;;;;;;4.45;2.80;;;;;;;;;;5007118;28;20105;-82
2022/11/05 04:44:35;;;;;;;5.00;3.20;;;;;;;;;;5006065;28;20045;-83
2022/11/05 04:47:01;;;;;;;4.07;2.97;;;;;;;;;;5007836;28;20049;-83
2022/11/05 04:49:26;;;;;;;4.82;3.20;;;;;;;;;;5008835;28;20046;-83
2022/11/05 04:51:52;;;;;;;4.78;2.80;;;;;;;;;;5007639;28;20030;-82
2022/11/05 04:54:17;;;;;;;3.63;2.55;;;;;;;;;;5005459;28;20049;-83
2022/11/05 04:56:42;;;;;;;3.53;2.45;;;;;;;;;;5006463;28;20125;-82
2022/11/05 04:59:08;;;;;;;4.07;2.28;;;;;;;;;;5009625;28;20030;-84
2022/11/05 05:01:33;;;;;;;3.47;2.30;;;;;;;;;;4990419;28;20096;-84
2022/11/05 05:03:59;;;;;;;4.65;2.50;;;;;;;;;;4989395;28;20049;-83
2022/11/05 05:06:24;;;;;;;3.97;2.40;;;;;;;;;;5006032;28;20031;-83
2022/11/05 05:08:50;;;;;;;4.30;2.33;;;;;;;;;;5004965;28;20145;-84
2022/11/05 05:11:18;;;;;;;3.58;2.50;;;;;;;;;;5007145;28;20053;-84
2022/11/05 05:13:44;;;;;;;4.03;2.40;;;;;;;;;;5003305;28;20038;-83
2022/11/05 05:16:21;;;;;;;6.18;2.92;;;;;;;;;;5007035;28;20034;-81
2022/11/05 05:18:47;;;;;;;3.53;2.70;;;;;;;;;;5006430;28;20046;-82
2022/11/05 05:23:58;;;;;;;4.07;2.85;;;;;;;;;;5007456;28;20058;-82
2022/11/05 05:26:24;;;;;;;4.95;3.30;;;;;;;;;;5005822;28;20041;-82
2022/11/05 05:28:51;;;;;;;4.78;3.05;;;;;;;;;;5008629;28;20028;-82
2022/11/05 05:31:16;;;;;;;3.75;2.63;;;;;;;;;;5007274;28;20045;-84
2022/11/05 05:33:42;;;;;;;3.97;3.00;;;;;;;;;;5005916;28;20038;-82
2022/11/05 05:36:08;;;;;;;4.53;3.00;;;;;;;;;;4988937;28;20033;-81
2022/11/05 05:38:33;;;;;;;4.15;3.03;;;;;;;;;;5006092;28;20057;-81
2022/11/05 05:40:59;;;;;;;6.22;3.50;;;;;;;;;;5006636;28;20038;-83
2022/11/05 05:43:31;;;;;;;4.60;3.00;;;;;;;;;;5004814;28;20106;-84
2022/11/05 05:46:04;;;;;;;4.25;3.08;;;;;;;;;;5005273;28;20126;-81
2022/11/05 05:48:30;;;;;;;5.45;3.45;;;;;;;;;;5004746;28;20113;-83
2022/11/05 05:51:03;;;;;;;4.00;3.08;;;;;;;;;;5004337;28;20061;-82
2022/11/05 05:53:29;;;;;;;4.53;3.22;;;;;;;;;;4989452;28;20511;-83
2022/11/05 05:55:55;;;;;;;4.55;3.10;;;;;;;;;;5004921;28;20037;-81
2022/11/05 05:58:22;;;;;;;4.00;2.85;;;;;;;;;;5005067;28;20045;-82
2022/11/05 06:00:47;;;;;;;5.20;3.20;;;;;;;;;;4988738;28;20036;-83
2022/11/05 06:03:13;;;;;;;4.57;3.10;;;;;;;;;;5004900;28;20477;-82
2022/11/05 06:05:38;;;;;;;4.45;3.22;;;;;;;;;;5004689;28;20451;-82
2022/11/05 06:08:04;;;;;;;5.13;3.40;;;;;;;;;;5005744;28;20093;-82
2022/11/05 06:10:29;;;;;;;5.30;3.28;;;;;;;;;;5005711;28;20048;-83
2022/11/05 06:12:55;;;;;;;6.07;3.58;;;;;;;;;;4986492;28;20042;-82
2022/11/05 06:15:20;;;;;;;5.55;3.70;;;;;;;;;;5004145;28;20045;-83
2022/11/05 06:17:46;;;;;;;5.53;3.60;;;;;;;;;;4984910;28;20035;-82
2022/11/05 06:20:12;;;;;;;5.60;3.25;;;;;;;;;;4984792;28;20062;-80
2022/11/05 06:22:38;;;;;;;4.72;3.17;;;;;;;;;;4984013;28;20031;-83
2022/11/05 06:25:04;;;;;;;4.50;3.10;;;;;;;;;;4968205;28;20058;-81
2022/11/05 06:27:30;;;;;;;6.07;3.50;;;;;;;;;;4984965;28;20078;-83
2022/11/05 06:29:55;;;;;;;5.38;3.50;;;;;;;;;;4986158;28;20038;-82
2022/11/05 06:32:21;;;;;;;5.45;3.65;;;;;;;;;;4986614;28;20150;-84
2022/11/05 06:34:46;;;;;;;6.00;4.00;;;;;;;;;;4984886;28;20034;-84
2022/11/05 06:37:12;;;;;;;6.45;3.60;;;;;;;;;;4987355;28;20030;-83
2022/11/05 06:39:37;;;;;;;5.47;3.72;;;;;;;;;;4990020;28;20045;-82
2022/11/05 06:42:03;;;;;;;5.78;3.83;;;;;;;;;;4988682;28;20045;-83
2022/11/05 06:44:28;;;;;;;6.15;4.18;;;;;;;;;;4986662;28;20039;-82
2022/11/05 06:46:54;;;;;;;6.85;4.03;;;;;;;;;;4995872;28;20041;-82
2022/11/05 06:49:23;;;;;;;7.35;4.45;;;;;;;;;;5004542;28;20037;-85
2022/11/05 06:51:49;;;;;;;9.82;4.75;;;;;;;;;;5007808;28;20106;-84
2022/11/05 06:54:15;;;;;;;6.05;3.95;;;;;;;;;;5002015;28;20168;-85
2022/11/05 06:56:40;;;;;;;7.55;4.13;;;;;;;;;;4990742;28;20034;-83
2022/11/05 06:59:07;;;;;;;8.02;4.65;;;;;;;;;;4986429;28;20093;-83
2022/11/05 07:01:34;;;;;;;5.63;3.97;;;;;;;;;;4985657;28;20034;-82
2022/11/05 07:03:59;;;;;;;6.32;4.15;;;;;;;;;;4981979;28;20035;-81
2022/11/05 07:06:25;;;;;;;6.63;4.13;;;;;;;;;;4983488;28;20039;-82
2022/11/05 07:08:51;;;;;;;6.97;3.80;;;;;;;;;;4985868;28;20121;-81
2022/11/05 07:11:17;;;;;;;6.72;4.10;;;;;;;;;;4983699;28;20042;-82
2022/11/05 07:13:42;;;;;;;6.75;4.30;;;;;;;;;;4983993;28;20039;-82
2022/11/05 07:16:08;;;;;;;7.20;4.78;;;;;;;;;;4983368;28;20062;-82
2022/11/05 07:18:33;;;;;;;6.85;3.78;;;;;;;;;;4984798;28;20041;-81
2022/11/05 07:20:59;;;;;;;6.60;4.43;;;;;;;;;;4984561;28;20462;-82
2022/11/05 07:23:25;;;;;;;7.95;4.32;;;;;;;;;;4982893;28;20533;-80
2022/11/05 07:25:50;;;;;;;7.40;4.38;;;;;;;;;;4982853;28;20035;-82
2022/11/05 07:28:16;;;;;;;6.18;3.97;;;;;;;;;;4981534;28;20042;-81
2022/11/05 07:30:42;;;;;;;6.93;4.00;;;;;;;;;;4983676;28;20046;-83
2022/11/05 07:33:07;;;;;;;6.25;4.13;;;;;;;;;;4977609;28;20058;-83
2022/11/05 07:35:33;;;;;;;6.30;3.90;;;;;;;;;;4981048;28;20046;-83
2022/11/05 07:37:59;;;;;;;5.78;3.78;;;;;;;;;;4982381;28;20045;-85
2022/11/05 07:40:27;;;;;;;6.35;3.92;;;;;;;;;;4999410;28;20035;-84
2022/11/05 07:42:54;;;;;;;5.88;3.97;;;;;;;;;;4983467;28;20051;-84
2022/11/05 07:45:20;;;;;;;6.35;4.30;;;;;;;;;;4981167;28;20039;-84
2022/11/05 07:47:51;;;;;;;6.65;3.78;;;;;;;;;;4990076;28;20117;-85
2022/11/05 07:50:19;;;;;;;6.45;3.83;;;;;;;;;;5001325;28;20535;-83
2022/11/05 07:52:44;;;;;;;7.82;5.00;;;;;;;;;;5017055;28;20039;-84
2022/11/05 07:55:12;;;;;;;7.65;4.43;;;;;;;;;;5000021;28;20022;-83
2022/11/05 07:57:41;;;;;;;7.43;4.07;;;;;;;;;;4998995;28;20034;-84
2022/11/05 08:00:08;;;;;;;6.70;4.32;;;;;;;;;;5000040;28;20034;-84
2022/11/05 08:02:42;;;;;;;7.30;4.10;;;;;;;;;;5000118;28;20045;-84
2022/11/05 08:05:08;;;;;;;7.80;5.00;;;;;;;;;;5000048;28;20030;-84
2022/11/05 08:07:34;;;;;;;10.30;4.13;;;;;;;;;;5000340;28;20567;-84
2022/11/05 08:10:02;;;;;;;6.85;4.60;;;;;;;;;;5001622;28;20034;-84
2022/11/05 08:12:28;;;;;;;4.85;3.60;;;;;;;;;;5000901;28;20120;-82
2022/11/05 08:14:53;;;;;;;6.15;3.90;;;;;;;;;;4980866;28;20488;-82
2022/11/05 08:17:19;;;;;;;5.55;3.55;;;;;;;;;;5018828;28;20034;-84
2022/11/05 08:19:44;;;;;;;5.18;3.30;;;;;;;;;;5001614;28;20518;-85
2022/11/05 08:22:09;;;;;;;4.95;3.40;;;;;;;;;;5001267;28;20054;-84
2022/11/05 08:24:35;;;;;;;7.18;4.32;;;;;;;;;;5003011;28;20031;-84
2022/11/05 08:27:00;;;;;;;6.18;4.07;;;;;;;;;;5018907;28;20057;-85
2022/11/05 08:29:26;;;;;;;9.18;5.03;;;;;;;;;;5002013;28;20054;-83
2022/11/05 08:31:51;;;;;;;11.35;6.35;;;;;;;;;;5003946;28;20040;-83
2022/11/05 08:34:17;;;;;;;10.30;4.97;;;;;;;;;;5003593;28;20038;-85
2022/11/05 08:36:45;;;;;;;8.98;4.53;;;;;;;;;;5005062;28;20061;-85
2022/11/05 08:39:12;;;;;;;6.47;4.05;;;;;;;;;;5005767;28;20037;-85
2022/11/05 08:41:39;;;;;;;5.80;4.03;;;;;;;;;;5003886;28;20045;-85
2022/11/05 08:44:07;;;;;;;6.35;3.70;;;;;;;;;;5004189;28;20561;-84
2022/11/05 08:46:35;;;;;;;6.50;3.95;;;;;;;;;;5009386;28;20034;-84
2022/11/05 08:49:00;;;;;;;5.18;3.47;;;;;;;;;;5007263;28;20042;-84
2022/11/05 08:51:26;;;;;;;4.72;3.30;;;;;;;;;;5007891;28;20388;-83
2022/11/05 08:53:51;;;;;;;5.70;3.17;;;;;;;;;;5007923;28;20141;-83
2022/11/05 08:56:17;;;;;;;8.43;3.30;;;;;;;;;;5020152;28;20554;-83
2022/11/05 08:58:42;;;;;;;5.50;3.08;;;;;;;;;;5004339;28;20507;-84
2022/11/05 09:01:08;;;;;;;5.88;2.95;;;;;;;;;;5002661;28;20045;-83
2022/11/05 09:03:33;;;;;;;4.72;2.97;;;;;;;;;;5005377;28;20040;-83
2022/11/05 09:05:59;;;;;;;3.85;2.75;;;;;;;;;;5019654;28;20049;-82
2022/11/05 09:08:24;;;;;;;4.03;2.85;;;;;;;;;;5021675;28;20030;-84
2022/11/05 09:10:50;;;;;;;4.30;2.90;;;;;;;;;;5020783;28;20479;-84
2022/11/05 09:13:16;;;;;;;4.50;2.60;;;;;;;;;;5021003;28;20026;-83
2022/11/05 09:15:41;;;;;;;5.35;2.80;;;;;;;;;;5003405;28;20039;-82
2022/11/05 09:18:11;;;;;;;4.53;2.45;;;;;;;;;;4987710;28;20510;-84
2022/11/05 09:20:38;;;;;;;5.65;2.88;;;;;;;;;;5004357;28;20034;-82
2022/11/05 09:23:05;;;;;;;5.05;2.70;;;;;;;;;;5005188;28;20495;-84
2022/11/05 09:25:31;;;;;;;4.30;2.60;;;;;;;;;;5003242;28;20034;-85
2022/11/05 09:28:18;;;;;;;4.55;2.58;;;;;;;;;;5019339;28;20477;-83
2022/11/05 09:30:49;;;;;;;4.18;2.75;;;;;;;;;;5001382;28;20038;-82
2022/11/05 09:33:16;;;;;;;4.95;2.75;;;;;;;;;;4982650;28;20042;-83
2022/11/05 09:35:44;;;;;;;3.38;2.15;;;;;;;;;;4999098;28;20112;-82
2022/11/05 09:38:09;;;;;;;3.25;2.30;;;;;;;;;;4998992;28;20121;-82
2022/11/05 09:40:42;;;;;;;5.10;2.60;;;;;;;;;;4997797;28;20066;-81
2022/11/05 09:43:15;;;;;;;4.28;2.80;;;;;;;;;;4997941;28;20042;-80
2022/11/05 09:45:42;;;;;;;3.03;2.03;;;;;;;;;;4999078;28;20042;-83
2022/11/05 09:48:14;;;;;;;4.30;2.28;;;;;;;;;;4997533;28;20039;-80
2022/11/05 09:50:42;;;;;;;4.30;2.30;;;;;;;;;;4997113;28;20407;-82
2022/11/05 09:53:14;;;;;;;3.55;2.08;;;;;;;;;;5012079;28;20030;-81
2022/11/05 09:55:42;;;;;;;3.28;1.90;;;;;;;;;;4996713;28;20491;-82
2022/11/05 09:58:38;;;;;;;3.97;2.08;;;;;;;;;;4995701;28;20026;-82
2022/11/05 10:01:09;;;;;;;3.90;2.35;;;;;;;;;;4997659;28;20129;-82
2022/11/05 10:03:42;;;;;;;2.90;2.00;;;;;;;;;;4998684;28;20034;-81
2022/11/05 10:06:11;;;;;;;2.97;2.03;;;;;;;;;;5012912;28;20034;-81
2022/11/05 10:08:42;;;;;;;2.78;1.83;;;;;;;;;;4999371;28;20084;-81
2022/11/05 10:11:16;;;;;;;3.10;2.08;;;;;;;;;;4996051;28;20041;-84
2022/11/05 10:13:44;;;;;;;4.45;2.33;;;;;;;;;;4995943;28;20085;-81
2022/11/05 10:16:22;;;;;;;3.75;2.35;;;;;;;;;;4996316;28;20038;-84
2022/11/05 10:19:04;;;;;;;3.13;2.35;;;;;;;;;;4995989;28;20038;-84
2022/11/05 10:21:30;;;;;;;3.60;2.25;;;;;;;;;;4996144;28;20042;-84
2022/11/05 10:23:56;;;;;;;3.83;2.40;;;;;;;;;;4996317;28;20138;-82
2022/11/05 10:26:26;;;;;;;3.00;2.20;;;;;;;;;;4995782;28;20031;-84
2022/11/05 10:28:52;;;;;;;5.28;3.08;;;;;;;;;;4996468;28;20026;-84
2022/11/05 10:31:20;;;;;;;5.60;2.70;;;;;;;;;;5012251;28;20042;-83
2022/11/05 10:33:50;;;;;;;3.40;2.17;;;;;;;;;;4995881;28;20042;-83
2022/11/05 10:36:22;;;;;;;3.90;2.53;;;;;;;;;;4994790;28;20043;-84
2022/11/05 10:38:47;;;;;;;6.82;3.10;;;;;;;;;;4995204;28;20038;-84
2022/11/05 10:41:55;;;;;;;5.00;2.75;;;;;;;;;;4996569;28;20026;-83
2022/11/05 10:44:48;;;;;;;4.78;3.17;;;;;;;;;;5007139;23;20144;-85
2022/11/05 10:47:44;;;;;;;4.70;2.70;;;;;;;;;;5035854;28;20065;-85
2022/11/05 10:50:20;;;;;;;3.17;2.20;;;;;;;;;;5017992;28;20059;-85
2022/11/05 10:52:59;;;;;;;3.00;2.08;;;;;;;;;;5018084;28;20472;-84
2022/11/05 10:55:28;;;;;;;3.38;2.10;;;;;;;;;;5034949;28;20049;-85
2022/11/05 10:58:06;;;;;;;2.85;1.92;;;;;;;;;;5035745;28;20076;-84
2022/11/05 11:00:32;;;;;;;3.17;1.90;;;;;;;;;;5035623;28;20041;-84
2022/11/05 11:03:00;;;;;;;2.33;1.50;;;;;;;;;;5018644;28;20048;-84
2022/11/05 11:05:27;;;;;;;2.30;1.50;;;;;;;;;;5017092;28;20039;-84
2022/11/05 11:07:56;;;;;;;2.35;1.60;;;;;;;;;;5035853;28;20402;-84
2022/11/05 11:10:22;;;;;;;2.67;1.80;;;;;;;;;;5017752;28;20034;-85
2022/11/05 11:12:49;;;;;;;4.22;2.30;;;;;;;;;;5033992;28;20033;-85
2022/11/05 11:15:27;;;;;;;5.13;2.60;;;;;;;;;;5035256;28;20033;-84
2022/11/05 11:17:55;;;;;;;10.25;4.50;;;;;;;;;;5035853;28;20033;-84
2022/11/05 11:20:32;;;;;;;9.23;4.43;;;;;;;;;;5036003;28;20103;-87
2022/11/05 11:23:18;;;;;;;3.72;2.00;;;;;;;;;;5035579;28;20045;-84
2022/11/05 11:25:52;;;;;;;2.95;1.60;;;;;;;;;;5034076;28;20099;-84
2022/11/05 11:28:17;;;;;;;;;;;;;;;;;;5035122;28;20101;-83
2022/11/05 11:30:49;;;;;;;2.58;1.40;;;;;;;;;;5017461;28;19959;-84
2022/11/05 11:33:19;;;;;;;1.90;1.30;;;;;;;;;;5035047;28;20045;-83
2022/11/05 11:35:45;;;;;;;2.40;1.42;;;;;;;;;;5035791;28;20029;-83
2022/11/05 11:38:14;;;;;;;2.75;1.50;;;;;;;;;;5019890;28;20040;-86
2022/11/05 11:40:40;;;;;;;3.45;1.75;;;;;;;;;;5036647;28;20494;-84
2022/11/05 11:43:17;;;;;;;2.83;1.80;;;;;;;;;;5036748;28;20044;-84
2022/11/05 11:45:46;;;;;;;4.85;1.50;;;;;;;;;;5018803;28;20116;-86
2022/11/05 11:48:20;;;;;;;4.55;1.20;;;;;;;;;;5037133;28;20038;-85
2022/11/05 11:50:46;;;;;;;;;;;;;;;;;;5038161;28;20037;-84
2022/11/05 11:53:18;;;;;;;3.70;2.20;;;;;;;;;;5019081;28;20007;-87
2022/11/05 11:56:15;;;;;;;2.90;1.90;;;;;;;;;;5036905;28;20034;-86
2022/11/05 11:58:46;;;;;;;3.15;2.10;;;;;;;;;;5036994;28;20037;-86
2022/11/05 12:01:36;;;;;;;3.63;2.38;;;;;;;;;;5018250;28;20026;-84
2022/11/05 12:04:17;;;;;;;3.35;2.05;;;;;;;;;;5035349;28;20493;-85
2022/11/05 12:07:07;;;;;;;6.15;2.60;;;;;;;;;;5018685;28;20042;-84
2022/11/05 12:09:53;;;;;;;5.13;2.70;;;;;;;;;;5036255;28;20232;-84
2022/11/05 12:12:43;;;;;;;3.80;1.92;;;;;;;;;;5036238;28;20033;-84
2022/11/05 12:15:36;;;;;;;3.63;2.40;;;;;;;;;;5035824;28;20033;-85
2022/11/05 12:18:12;;;;;;;3.13;2.28;;;;;;;;;;5018210;28;20041;-85
2022/11/05 12:20:56;;;;;;;3.58;2.20;;;;;;;;;;5036952;28;20045;-85
2022/11/05 12:23:50;;;;;;;4.25;2.08;;;;;;;;;;5036222;28;20068;-85
2022/11/05 12:26:30;;;;;;;2.70;1.70;;;;;;;;;;5036124;28;20026;-85
2022/11/05 12:29:28;;;;;;;3.13;2.00;;;;;;;;;;5036629;28;20643;-85
2022/11/05 12:31:53;;;;;;;3.10;1.92;;;;;;;;;;5036556;28;20049;-86
2022/11/05 12:34:25;;;;;;;3.60;2.20;;;;;;;;;;5035969;28;20056;-85
2022/11/05 12:37:08;;;;;;;4.88;2.45;;;;;;;;;;5036905;28;20053;-84
2022/11/05 12:39:53;;;;;;;4.55;2.80;;;;;;;;;;5036400;28;20052;-85
2022/11/05 12:42:43;;;;;;;3.40;2.25;;;;;;;;;;5019310;28;20041;-85
2022/11/05 12:45:18;;;;;;;3.67;2.20;;;;;;;;;;5033888;28;20123;-84
2022/11/05 12:47:50;;;;;;;3.88;2.10;;;;;;;;;;5034685;28;20521;-84
2022/11/05 12:50:37;;;;;;;3.10;2.00;;;;;;;;;;5034982;28;20033;-85
2022/11/05 12:53:30;;;;;;;2.80;1.92;;;;;;;;;;5001042;28;20059;-86
2022/11/05 12:56:01;;;;;;;2.75;2.08;;;;;;;;;;5019778;28;20077;-85
2022/11/05 12:58:35;;;;;;;3.15;2.05;;;;;;;;;;5036219;28;20033;-85
2022/11/05 13:01:24;;;;;;;2.83;2.03;;;;;;;;;;5038782;28;20095;-85
2022/11/05 13:03:57;;;;;;;3.95;2.08;;;;;;;;;;5039440;28;20422;-84
2022/11/05 13:06:31;;;;;;;2.92;1.85;;;;;;;;;;5039539;28;20128;-85
2022/11/05 13:09:03;;;;;;;3.80;2.03;;;;;;;;;;5039041;28;20033;-85
2022/11/05 13:11:36;;;;;;;4.45;2.50;;;;;;;;;;5039877;28;20033;-84
2022/11/05 13:14:13;;;;;;;5.88;2.45;;;;;;;;;;5037901;28;20045;-85
2022/11/05 13:16:54;;;;;;;5.07;2.72;;;;;;;;;;5022018;28;20030;-85
2022/11/05 13:19:25;;;;;;;5.10;3.13;;;;;;;;;;5039893;28;20037;-85
2022/11/05 13:22:06;;;;;;;5.10;3.13;;;;;;;;;;5021430;28;20056;-85
2022/11/05 13:24:49;;;;;;;4.90;3.10;;;;;;;;;;5038744;28;20045;-84
2022/11/05 13:27:41;;;;;;;4.63;2.70;;;;;;;;;;5021949;28;20044;-85
2022/11/05 13:30:14;;;;;;;3.70;2.30;;;;;;;;;;5039260;28;20280;-85
2022/11/05 13:32:48;;;;;;;6.35;3.55;;;;;;;;;;5039382;28;20045;-85
2022/11/05 13:35:26;;;;;;;4.15;3.00;;;;;;;;;;5038440;28;20041;-85
2022/11/05 13:40:57;;;;;;;4.25;2.97;;;;;;;;;;5039170;28;20155;-85
2022/11/05 13:43:58;;;;;;;3.95;2.60;;;;;;;;;;5039480;28;20037;-85
2022/11/05 13:47:04;;;;;;;4.07;2.30;;;;;;;;;;5026745;28;20045;-86
2022/11/05 13:49:36;;;;;;;4.20;2.58;;;;;;;;;;5021821;28;20103;-85
2022/11/05 13:52:35;;;;;;;5.18;3.30;;;;;;;;;;5021406;28;20088;-86
2022/11/05 13:55:06;;;;;;;6.55;3.30;;;;;;;;;;5039915;28;20116;-86
2022/11/05 13:57:38;;;;;;;5.80;3.65;;;;;;;;;;5040242;28;20076;-85
2022/11/05 14:00:17;;;;;;;6.13;3.80;;;;;;;;;;5021817;28;20037;-86
2022/11/05 14:02:52;;;;;;;7.32;4.45;;;;;;;;;;5039374;28;20043;-84
2022/11/05 14:05:23;;;;;;;4.90;3.25;;;;;;;;;;5038273;28;20052;-85
2022/11/05 14:07:50;;;;;;;4.80;3.60;;;;;;;;;;5038359;28;20111;-86
2022/11/05 14:10:34;;;;;;;8.23;3.53;;;;;;;;;;5039396;28;20036;-86
2022/11/05 14:13:24;;;;;;;5.57;3.20;;;;;;;;;;5038344;28;20045;-85
2022/11/05 14:16:04;;;;;;;4.47;2.70;;;;;;;;;;5037827;28;20048;-84
2022/11/05 14:18:41;;;;;;;3.78;2.03;;;;;;;;;;5038702;28;20539;-85
2022/11/05 14:21:46;;;;;;;6.43;3.03;;;;;;;;;;5021084;28;20513;-84
2022/11/05 14:24:20;;;;;;;3.75;2.00;;;;;;;;;;5038104;28;20057;-84
2022/11/05 14:27:01;;;;;;;3.10;1.60;;;;;;;;;;5020447;28;20066;-85
2022/11/05 14:29:45;;;;;;;3.25;1.60;;;;;;;;;;5038738;28;20037;-85
2022/11/05 14:32:17;;;;;;;2.13;1.33;;;;;;;;;;5038479;28;20041;-85
2022/11/05 14:34:48;;;;;;;2.78;1.70;;;;;;;;;;5038136;28;20052;-85
2022/11/05 14:37:32;;;;;;;3.45;1.65;;;;;;;;;;5038829;28;20064;-87
2022/11/05 14:40:24;;;;;;;2.30;1.63;;;;;;;;;;5039567;28;20044;-86
2022/11/05 14:42:55;;;;;;;3.20;2.03;;;;;;;;;;5040282;28;20106;-86
2022/11/05 14:45:35;;;;;;;6.13;2.40;;;;;;;;;;5038100;28;20041;-90
2022/11/05 14:48:18;;;;;;;5.30;2.30;;;;;;;;;;5039380;28;20037;-85
2022/11/05 14:50:45;;;;;;;4.22;2.30;;;;;;;;;;5022405;28;20036;-84
2022/11/05 14:53:32;;;;;;;4.03;2.10;;;;;;;;;;5039381;28;20038;-86
2022/11/05 14:56:06;;;;;;;3.42;0.90;;;;;;;;;;5020594;28;20078;-85
2022/11/05 14:58:35;;;;;;;1.65;0.80;;;;;;;;;;5038878;28;20029;-85
2022/11/05 15:01:04;;;;;;;0.77;0.55;;;;;;;;;;5038595;28;20061;-85
2022/11/05 15:03:38;;;;;;;0.93;0.60;;;;;;;;;;5039270;28;20183;-85
2022/11/05 15:06:04;;;;;;;1.35;0.63;;;;;;;;;;5038121;28;20037;-85
2022/11/05 15:08:29;;;;;;;0.50;0.47;;;;;;;;;;5038928;28;20064;-85
2022/11/05 15:11:34;;;;;;;0.88;0.50;;;;;;;;;;5021006;28;20057;-85
2022/11/05 15:14:15;;;;;;;1.70;1.10;;;;;;;;;;5019807;28;20041;-85
2022/11/05 15:16:54;;;;;;;1.23;0.70;;;;;;;;;;5038969;28;20140;-85
2022/11/05 15:19:29;;;;;;;0.88;0.82;;;;;;;;;;5021197;28;20029;-85
2022/11/05 15:21:57;;;;;;;3.72;2.40;;;;;;;;;;5021137;28;20045;-85
2022/11/05 15:24:27;;;;;;;5.03;3.20;;;;;;;;;;5019047;28;20033;-85
2022/11/05 15:27:14;;;;;;;5.65;3.00;;;;;;;;;;5038403;28;20021;-85
2022/11/05 15:29:39;;;;;;;5.13;3.20;;;;;;;;;;5038773;28;20034;-85
2022/11/05 15:32:17;;;;;;;6.72;3.10;;;;;;;;;;5038428;28;20116;-85
2022/11/05 15:34:54;;;;;;;5.88;3.40;;;;;;;;;;5037889;28;20063;-86
2022/11/05 15:37:22;;;;;;;7.00;3.70;;;;;;;;;;5038738;28;20034;-85
2022/11/05 15:39:51;;;;;;;6.53;2.85;;;;;;;;;;5038824;28;20042;-85
2022/11/05 15:42:21;;;;;;;9.13;5.70;;;;;;;;;;5038246;28;20041;-85
2022/11/05 15:44:49;;;;;;;2.40;1.77;;;;;;;;;;5019779;28;20030;-86
2022/11/05 15:47:17;;;;;;;3.00;1.70;;;;;;;;;;5037873;28;20397;-86
2022/11/05 15:49:45;;;;;;;3.25;1.92;;;;;;;;;;5038350;28;20112;-86
2022/11/05 15:52:13;;;;;;;3.05;1.95;;;;;;;;;;5038645;28;20044;-86
2022/11/05 15:54:39;;;;;;;2.80;1.80;;;;;;;;;;5038162;28;20546;-86
2022/11/05 15:57:19;;;;;;;3.05;2.17;;;;;;;;;;5037905;28;20029;-86
2022/11/05 15:59:46;;;;;;;3.95;2.50;;;;;;;;;;5020362;28;20033;-86
2022/11/05 16:02:25;;;;;;;4.68;2.67;;;;;;;;;;5038827;28;20037;-86